sensor_id;sensor_type;location;lat;lon;timestamp;pressure;altitude;pressure_sealevel;temperature;humidity
66524;BME280;53350;52.210;5.160;2023-05-29T00:00:45;102525.28;;;12.60;70.07
66524;BME280;53350;52.210;5.160;2023-05-29T00:03:11;102526.13;;;12.61;69.73
66524;BME280;53350;52.210;5.160;2023-05-29T00:05:38;102524.38;;;12.60;69.76
66524;BME280;53350;52.210;5.160;2023-05-29T00:08:05;102531.28;;;12.61;69.39
66524;BME280;53350;52.210;5.160;2023-05-29T00:10:31;102533.84;;;12.53;69.31
66524;BME280;53350;52.210;5.160;2023-05-29T00:12:58;102520.94;;;12.56;69.23
66524;BME280;53350;52.210;5.160;2023-05-29T00:15:27;102527.78;;;12.51;69.14
66524;BME280;53350;52.210;5.160;2023-05-29T00:17:55;102532.00;;;12.40;69.51
66524;BME280;53350;52.210;5.160;2023-05-29T00:20:22;102518.25;;;12.47;68.99
66524;BME280;53350;52.210;5.160;2023-05-29T00:22:48;102520.84;;;12.47;68.94
66524;BME280;53350;52.210;5.160;2023-05-29T00:25:14;102524.31;;;12.44;68.72
66524;BME280;53350;52.210;5.160;2023-05-29T00:27:41;102526.03;;;12.47;68.53
66524;BME280;53350;52.210;5.160;2023-05-29T00:30:08;102531.16;;;12.39;68.47
66524;BME280;53350;52.210;5.160;2023-05-29T00:32:36;102525.13;;;12.39;68.31
66524;BME280;53350;52.210;5.160;2023-05-29T00:35:03;102532.84;;;12.34;68.44
66524;BME280;53350;52.210;5.160;2023-05-29T00:37:30;102540.56;;;12.32;68.03
66524;BME280;53350;52.210;5.160;2023-05-29T00:39:56;102541.44;;;12.34;68.09
66524;BME280;53350;52.210;5.160;2023-05-29T00:42:22;102556.00;;;12.25;68.05
66524;BME280;53350;52.210;5.160;2023-05-29T00:44:49;102547.44;;;12.32;67.89
66524;BME280;53350;52.210;5.160;2023-05-29T00:47:15;102564.66;;;12.27;67.95
66524;BME280;53350;52.210;5.160;2023-05-29T00:49:44;102550.94;;;12.35;67.63
66524;BME280;53350;52.210;5.160;2023-05-29T00:52:11;102548.34;;;12.34;67.59
66524;BME280;53350;52.210;5.160;2023-05-29T00:54:38;102552.66;;;12.38;67.58
66524;BME280;53350;52.210;5.160;2023-05-29T00:57:05;102547.41;;;12.26;67.82
66524;BME280;53350;52.210;5.160;2023-05-29T00:59:33;102548.28;;;12.31;67.53
66524;BME280;53350;52.210;5.160;2023-05-29T01:02:01;102548.22;;;12.22;67.89
66524;BME280;53350;52.210;5.160;2023-05-29T01:04:28;102554.25;;;12.22;67.78
66524;BME280;53350;52.210;5.160;2023-05-29T01:06:55;102557.69;;;12.18;67.92
66524;BME280;53350;52.210;5.160;2023-05-29T01:09:22;102562.88;;;12.20;67.64
66524;BME280;53350;52.210;5.160;2023-05-29T01:12:01;102555.16;;;12.23;67.82
66524;BME280;53350;52.210;5.160;2023-05-29T01:14:36;102566.34;;;12.26;67.43
66524;BME280;53350;52.210;5.160;2023-05-29T01:17:09;102570.69;;;12.27;67.56
66524;BME280;53350;52.210;5.160;2023-05-29T01:20:01;102560.22;;;12.15;67.98
66524;BME280;53350;52.210;5.160;2023-05-29T01:22:43;102576.59;;;12.14;67.92
66524;BME280;53350;52.210;5.160;2023-05-29T01:25:19;102570.53;;;12.10;68.23
66524;BME280;53350;52.210;5.160;2023-05-29T01:27:49;102579.16;;;12.12;67.94
66524;BME280;53350;52.210;5.160;2023-05-29T01:30:18;102580.88;;;12.13;68.01
66524;BME280;53350;52.210;5.160;2023-05-29T01:32:45;102585.16;;;12.08;68.25
66524;BME280;53350;52.210;5.160;2023-05-29T01:35:12;102586.97;;;12.18;67.93
66524;BME280;53350;52.210;5.160;2023-05-29T01:37:38;102592.97;;;12.17;68.12
66524;BME280;53350;52.210;5.160;2023-05-29T01:40:07;102591.22;;;12.13;67.92
66524;BME280;53350;52.210;5.160;2023-05-29T01:42:34;102585.16;;;12.08;68.23
66524;BME280;53350;52.210;5.160;2023-05-29T01:45:02;102594.53;;;12.02;68.38
66524;BME280;53350;52.210;5.160;2023-05-29T01:47:31;102588.38;;;11.92;68.84
66524;BME280;53350;52.210;5.160;2023-05-29T01:49:59;102599.59;;;11.91;68.95
66524;BME280;53350;52.210;5.160;2023-05-29T01:52:26;102602.06;;;11.84;68.99
66524;BME280;53350;52.210;5.160;2023-05-29T01:54:52;102603.88;;;11.92;69.09
66524;BME280;53350;52.210;5.160;2023-05-29T01:57:19;102599.56;;;11.88;69.26
66524;BME280;53350;52.210;5.160;2023-05-29T01:59:46;102609.09;;;11.93;68.99
66524;BME280;53350;52.210;5.160;2023-05-29T02:02:15;102611.72;;;11.95;68.92
66524;BME280;53350;52.210;5.160;2023-05-29T02:04:42;102609.97;;;11.94;69.10
66524;BME280;53350;52.210;5.160;2023-05-29T02:07:08;102607.41;;;11.95;69.13
66524;BME280;53350;52.210;5.160;2023-05-29T02:09:37;102612.50;;;11.92;69.10
66524;BME280;53350;52.210;5.160;2023-05-29T02:12:04;102600.41;;;11.88;69.44
66524;BME280;53350;52.210;5.160;2023-05-29T02:14:32;102605.56;;;11.87;69.38
66524;BME280;53350;52.210;5.160;2023-05-29T02:16:58;102597.84;;;11.90;69.12
66524;BME280;53350;52.210;5.160;2023-05-29T02:19:27;102600.41;;;11.87;69.33
66524;BME280;53350;52.210;5.160;2023-05-29T02:21:54;102602.13;;;11.86;69.39
66524;BME280;53350;52.210;5.160;2023-05-29T02:24:20;102609.00;;;11.87;69.43
66524;BME280;53350;52.210;5.160;2023-05-29T02:26:48;102602.94;;;11.83;69.50
66524;BME280;53350;52.210;5.160;2023-05-29T02:29:15;102598.59;;;11.79;69.58
66524;BME280;53350;52.210;5.160;2023-05-29T02:31:41;102602.00;;;11.78;69.56
66524;BME280;53350;52.210;5.160;2023-05-29T02:34:08;102595.97;;;11.75;69.68
66524;BME280;53350;52.210;5.160;2023-05-29T02:36:36;102608.84;;;11.73;69.84
66524;BME280;53350;52.210;5.160;2023-05-29T02:39:03;102607.03;;;11.64;70.25
66524;BME280;53350;52.210;5.160;2023-05-29T02:41:30;102608.66;;;11.56;70.17
66524;BME280;53350;52.210;5.160;2023-05-29T02:43:57;102607.03;;;11.64;70.11
66524;BME280;53350;52.210;5.160;2023-05-29T02:46:23;102610.47;;;11.65;69.91
66524;BME280;53350;52.210;5.160;2023-05-29T02:48:49;102602.72;;;11.63;69.88
66524;BME280;53350;52.210;5.160;2023-05-29T02:51:16;102601.13;;;11.73;69.46
66524;BME280;53350;52.210;5.160;2023-05-29T02:53:44;102594.16;;;11.66;69.52
66524;BME280;53350;52.210;5.160;2023-05-29T02:56:10;102605.25;;;11.59;69.75
66524;BME280;53350;52.210;5.160;2023-05-29T02:58:37;102604.34;;;11.55;69.81
66524;BME280;53350;52.210;5.160;2023-05-29T03:01:03;102606.91;;;11.54;69.97
66524;BME280;53350;52.210;5.160;2023-05-29T03:03:30;102606.03;;;11.53;69.75
66524;BME280;53350;52.210;5.160;2023-05-29T03:05:56;102621.50;;;11.52;69.76
66524;BME280;53350;52.210;5.160;2023-05-29T03:08:24;102604.22;;;11.44;69.55
66524;BME280;53350;52.210;5.160;2023-05-29T03:10:52;102618.16;;;11.59;69.36
66524;BME280;53350;52.210;5.160;2023-05-29T03:13:18;102609.50;;;11.55;69.28
66524;BME280;53350;52.210;5.160;2023-05-29T03:15:45;102612.97;;;11.56;69.25
66524;BME280;53350;52.210;5.160;2023-05-29T03:18:12;102613.81;;;11.58;69.12
66524;BME280;53350;52.210;5.160;2023-05-29T03:20:39;102606.91;;;11.55;69.16
66524;BME280;53350;52.210;5.160;2023-05-29T03:23:05;102604.25;;;11.47;69.25
66524;BME280;53350;52.210;5.160;2023-05-29T03:25:32;102600.81;;;11.48;69.26
66524;BME280;53350;52.210;5.160;2023-05-29T03:27:59;102601.69;;;11.51;69.24
66524;BME280;53350;52.210;5.160;2023-05-29T03:30:26;102608.56;;;11.48;69.19
66524;BME280;53350;52.210;5.160;2023-05-29T03:32:52;102608.50;;;11.44;69.43
66524;BME280;53350;52.210;5.160;2023-05-29T03:35:19;102613.63;;;11.41;69.48
66524;BME280;53350;52.210;5.160;2023-05-29T03:37:45;102599.03;;;11.41;69.27
66524;BME280;53350;52.210;5.160;2023-05-29T03:40:12;102604.16;;;11.40;69.25
66524;BME280;53350;52.210;5.160;2023-05-29T03:42:38;102603.28;;;11.41;69.19
66524;BME280;53350;52.210;5.160;2023-05-29T03:45:07;102601.53;;;11.38;69.26
66524;BME280;53350;52.210;5.160;2023-05-29T03:47:34;102605.06;;;11.43;69.10
66524;BME280;53350;52.210;5.160;2023-05-29T03:50:00;102608.44;;;11.39;68.80
66524;BME280;53350;52.210;5.160;2023-05-29T03:52:27;102611.84;;;11.38;68.80
66524;BME280;53350;52.210;5.160;2023-05-29T03:54:53;102599.84;;;11.39;68.80
66524;BME280;53350;52.210;5.160;2023-05-29T03:57:20;102616.19;;;11.39;68.88
66524;BME280;53350;52.210;5.160;2023-05-29T03:59:46;102618.69;;;11.35;69.11
66524;BME280;53350;52.210;5.160;2023-05-29T04:02:14;102612.66;;;11.33;69.27
66524;BME280;53350;52.210;5.160;2023-05-29T04:04:40;102611.78;;;11.34;68.94
66524;BME280;53350;52.210;5.160;2023-05-29T04:07:08;102616.09;;;11.31;69.10
66524;BME280;53350;52.210;5.160;2023-05-29T04:09:34;102621.25;;;11.33;68.94
66524;BME280;53350;52.210;5.160;2023-05-29T04:12:01;102619.47;;;11.27;68.99
66524;BME280;53350;52.210;5.160;2023-05-29T04:14:28;102625.50;;;11.31;69.17
66524;BME280;53350;52.210;5.160;2023-05-29T04:16:55;102616.97;;;11.35;68.76
66524;BME280;53350;52.210;5.160;2023-05-29T04:19:23;102623.84;;;11.33;68.81
66524;BME280;53350;52.210;5.160;2023-05-29T04:21:49;102628.19;;;11.36;68.89
66524;BME280;53350;52.210;5.160;2023-05-29T04:24:16;102629.09;;;11.41;68.57
66524;BME280;53350;52.210;5.160;2023-05-29T04:26:42;102637.75;;;11.44;68.60
66524;BME280;53350;52.210;5.160;2023-05-29T04:29:09;102639.56;;;11.52;68.51
66524;BME280;53350;52.210;5.160;2023-05-29T04:31:37;102638.69;;;11.53;68.43
66524;BME280;53350;52.210;5.160;2023-05-29T04:34:04;102643.06;;;11.58;68.06
66524;BME280;53350;52.210;5.160;2023-05-29T04:36:32;102639.72;;;11.65;68.08
66524;BME280;53350;52.210;5.160;2023-05-29T04:39:03;102643.31;;;11.78;67.63
66524;BME280;53350;52.210;5.160;2023-05-29T04:41:30;102645.00;;;11.73;67.57
66524;BME280;53350;52.210;5.160;2023-05-29T04:43:56;102649.41;;;11.82;67.44
66524;BME280;53350;52.210;5.160;2023-05-29T04:46:23;102663.16;;;11.82;67.22
66524;BME280;53350;52.210;5.160;2023-05-29T04:48:50;102647.69;;;11.82;67.10
66524;BME280;53350;52.210;5.160;2023-05-29T04:51:18;102643.47;;;11.91;66.77
66524;BME280;53350;52.210;5.160;2023-05-29T04:53:46;102653.13;;;12.06;66.44
66524;BME280;53350;52.210;5.160;2023-05-29T04:56:14;102647.16;;;12.11;66.17
66524;BME280;53350;52.210;5.160;2023-05-29T04:58:41;102655.88;;;12.21;65.79
66524;BME280;53350;52.210;5.160;2023-05-29T05:01:08;102655.19;;;12.38;65.81
66524;BME280;53350;52.210;5.160;2023-05-29T05:03:34;102651.03;;;12.57;65.22
66524;BME280;53350;52.210;5.160;2023-05-29T05:06:01;102657.19;;;12.73;64.63
66524;BME280;53350;52.210;5.160;2023-05-29T05:08:28;102656.44;;;12.86;64.18
66524;BME280;53350;52.210;5.160;2023-05-29T05:10:56;102662.56;;;13.00;63.75
66524;BME280;53350;52.210;5.160;2023-05-29T05:13:23;102661.75;;;13.06;63.19
66524;BME280;53350;52.210;5.160;2023-05-29T05:15:49;102667.00;;;13.14;63.05
66524;BME280;53350;52.210;5.160;2023-05-29T05:18:16;102666.13;;;13.15;62.49
66524;BME280;53350;52.210;5.160;2023-05-29T05:20:42;102666.09;;;13.12;62.47
66524;BME280;53350;52.210;5.160;2023-05-29T05:23:09;102661.81;;;13.14;62.54
66524;BME280;53350;52.210;5.160;2023-05-29T05:25:36;102665.16;;;13.02;62.91
66524;BME280;53350;52.210;5.160;2023-05-29T05:28:04;102671.22;;;13.01;62.88
66524;BME280;53350;52.210;5.160;2023-05-29T05:30:31;102658.22;;;12.93;63.01
66524;BME280;53350;52.210;5.160;2023-05-29T05:32:58;102665.06;;;12.86;63.27
66524;BME280;53350;52.210;5.160;2023-05-29T05:35:24;102660.06;;;13.10;62.56
66524;BME280;53350;52.210;5.160;2023-05-29T05:37:51;102664.44;;;13.18;62.56
66524;BME280;53350;52.210;5.160;2023-05-29T05:40:18;102655.88;;;13.32;61.75
66524;BME280;53350;52.210;5.160;2023-05-29T05:42:44;102675.78;;;13.41;61.05
66524;BME280;53350;52.210;5.160;2023-05-29T05:45:13;102667.06;;;13.31;61.53
66524;BME280;53350;52.210;5.160;2023-05-29T05:47:39;102667.97;;;13.33;61.39
66524;BME280;53350;52.210;5.160;2023-05-29T05:50:06;102678.38;;;13.39;61.37
66524;BME280;53350;52.210;5.160;2023-05-29T05:52:33;102676.66;;;13.41;60.94
66524;BME280;53350;52.210;5.160;2023-05-29T05:54:59;102678.38;;;13.42;61.08
66524;BME280;53350;52.210;5.160;2023-05-29T05:57:25;102680.13;;;13.43;60.65
66524;BME280;53350;52.210;5.160;2023-05-29T05:59:52;102680.16;;;13.51;60.66
66524;BME280;53350;52.210;5.160;2023-05-29T06:02:20;102677.66;;;13.63;60.28
66524;BME280;53350;52.210;5.160;2023-05-29T06:04:47;102679.41;;;13.69;59.19
66524;BME280;53350;52.210;5.160;2023-05-29T06:07:14;102681.94;;;13.63;59.39
66524;BME280;53350;52.210;5.160;2023-05-29T06:09:40;102678.53;;;13.70;58.80
66524;BME280;53350;52.210;5.160;2023-05-29T06:12:07;102670.81;;;13.78;58.53
66524;BME280;53350;52.210;5.160;2023-05-29T06:14:34;102678.56;;;13.79;58.24
66524;BME280;53350;52.210;5.160;2023-05-29T06:17:01;102681.16;;;13.73;58.59
66524;BME280;53350;52.210;5.160;2023-05-29T06:19:29;102684.66;;;13.90;58.17
66524;BME280;53350;52.210;5.160;2023-05-29T06:21:56;102666.56;;;14.03;57.96
66524;BME280;53350;52.210;5.160;2023-05-29T06:24:23;102670.03;;;14.20;56.92
66524;BME280;53350;52.210;5.160;2023-05-29T06:26:49;102668.34;;;14.22;56.71
66524;BME280;53350;52.210;5.160;2023-05-29T06:29:16;102675.22;;;14.23;56.79
66524;BME280;53350;52.210;5.160;2023-05-29T06:31:42;102671.78;;;14.29;56.46
66524;BME280;53350;52.210;5.160;2023-05-29T06:34:09;102680.44;;;14.34;55.74
66524;BME280;53350;52.210;5.160;2023-05-29T06:36:37;102688.19;;;14.17;56.21
66524;BME280;53350;52.210;5.160;2023-05-29T06:39:03;102701.13;;;14.09;56.40
66524;BME280;53350;52.210;5.160;2023-05-29T06:41:30;102681.25;;;14.05;56.21
66524;BME280;53350;52.210;5.160;2023-05-29T06:43:56;102695.91;;;14.02;56.45
66524;BME280;53350;52.210;5.160;2023-05-29T06:46:23;102693.25;;;13.80;56.48
66524;BME280;53350;52.210;5.160;2023-05-29T06:48:49;102697.56;;;13.77;56.68
66524;BME280;53350;52.210;5.160;2023-05-29T06:51:16;102694.97;;;13.81;56.99
66524;BME280;53350;52.210;5.160;2023-05-29T06:53:43;102694.13;;;13.81;56.88
66524;BME280;53350;52.210;5.160;2023-05-29T06:56:10;102690.72;;;13.96;55.89
66524;BME280;53350;52.210;5.160;2023-05-29T06:58:36;102706.25;;;13.94;56.33
66524;BME280;53350;52.210;5.160;2023-05-29T07:01:03;102699.38;;;14.01;56.26
66524;BME280;53350;52.210;5.160;2023-05-29T07:03:29;102706.31;;;14.03;55.80
66524;BME280;53350;52.210;5.160;2023-05-29T07:05:56;102701.13;;;14.11;55.79
66524;BME280;53350;52.210;5.160;2023-05-29T07:08:23;102701.13;;;14.16;55.46
66524;BME280;53350;52.210;5.160;2023-05-29T07:10:51;102700.28;;;14.20;55.45
66524;BME280;53350;52.210;5.160;2023-05-29T07:13:18;102696.84;;;14.32;55.19
66524;BME280;53350;52.210;5.160;2023-05-29T07:15:44;102698.59;;;14.48;54.94
66524;BME280;53350;52.210;5.160;2023-05-29T07:18:11;102702.94;;;14.46;54.90
66524;BME280;53350;52.210;5.160;2023-05-29T07:20:37;102709.84;;;14.52;54.54
66524;BME280;53350;52.210;5.160;2023-05-29T07:23:04;102715.91;;;14.49;54.17
66524;BME280;53350;52.210;5.160;2023-05-29T07:25:30;102715.91;;;14.48;54.19
66524;BME280;53350;52.210;5.160;2023-05-29T07:27:58;102716.75;;;14.39;54.49
66524;BME280;53350;52.210;5.160;2023-05-29T07:30:25;102711.56;;;14.48;53.90
66524;BME280;53350;52.210;5.160;2023-05-29T07:32:51;102711.56;;;14.45;54.73
66524;BME280;53350;52.210;5.160;2023-05-29T07:35:18;102713.34;;;14.58;54.07
66524;BME280;53350;52.210;5.160;2023-05-29T07:37:44;102720.28;;;14.73;53.98
66524;BME280;53350;52.210;5.160;2023-05-29T07:40:13;102707.31;;;14.86;53.26
66524;BME280;53350;52.210;5.160;2023-05-29T07:42:39;102704.72;;;14.78;52.92
66524;BME280;53350;52.210;5.160;2023-05-29T07:45:08;102711.63;;;14.82;52.98
66524;BME280;53350;52.210;5.160;2023-05-29T07:47:36;102701.25;;;14.96;52.34
66524;BME280;53350;52.210;5.160;2023-05-29T07:50:02;102702.97;;;14.94;52.49
66524;BME280;53350;52.210;5.160;2023-05-29T07:52:29;102709.03;;;14.94;52.28
66524;BME280;53350;52.210;5.160;2023-05-29T07:54:55;102706.44;;;15.05;52.04
66524;BME280;53350;52.210;5.160;2023-05-29T07:57:22;102722.03;;;15.02;52.10
66524;BME280;53350;52.210;5.160;2023-05-29T07:59:48;102720.25;;;15.10;52.30
66524;BME280;53350;52.210;5.160;2023-05-29T08:02:16;102726.31;;;15.16;52.00
66524;BME280;53350;52.210;5.160;2023-05-29T08:04:43;102702.09;;;15.23;51.77
66524;BME280;53350;52.210;5.160;2023-05-29T08:07:09;102712.47;;;15.24;52.26
66524;BME280;53350;52.210;5.160;2023-05-29T08:09:36;102711.59;;;15.30;51.43
66524;BME280;53350;52.210;5.160;2023-05-29T08:12:02;102710.72;;;15.39;51.41
66524;BME280;53350;52.210;5.160;2023-05-29T08:14:29;102718.50;;;15.40;51.00
66524;BME280;53350;52.210;5.160;2023-05-29T08:16:56;102724.56;;;15.35;51.65
66524;BME280;53350;52.210;5.160;2023-05-29T08:19:23;102724.53;;;15.50;51.28
66524;BME280;53350;52.210;5.160;2023-05-29T08:21:50;102724.50;;;15.59;51.42
66524;BME280;53350;52.210;5.160;2023-05-29T08:24:17;102714.06;;;15.75;50.43
66524;BME280;53350;52.210;5.160;2023-05-29T08:26:45;102714.91;;;15.75;50.33
66524;BME280;53350;52.210;5.160;2023-05-29T08:29:11;102727.91;;;15.80;50.26
66524;BME280;53350;52.210;5.160;2023-05-29T08:31:38;102721.00;;;15.84;49.47
66524;BME280;53350;52.210;5.160;2023-05-29T08:34:04;102721.00;;;15.70;50.40
66524;BME280;53350;52.210;5.160;2023-05-29T08:36:33;102721.00;;;15.77;49.98
66524;BME280;53350;52.210;5.160;2023-05-29T08:38:59;102717.50;;;15.92;49.20
66524;BME280;53350;52.210;5.160;2023-05-29T08:41:30;102734.84;;;15.79;50.02
66524;BME280;53350;52.210;5.160;2023-05-29T08:43:59;102726.16;;;15.88;49.61
66524;BME280;53350;52.210;5.160;2023-05-29T08:46:29;102727.91;;;15.86;49.48
66524;BME280;53350;52.210;5.160;2023-05-29T08:48:58;102710.50;;;16.05;49.47
66524;BME280;53350;52.210;5.160;2023-05-29T08:51:27;102726.94;;;16.13;49.91
66524;BME280;53350;52.210;5.160;2023-05-29T08:53:58;102713.03;;;16.16;49.60
66524;BME280;53350;52.210;5.160;2023-05-29T08:56:25;102720.03;;;16.08;50.04
66524;BME280;53350;52.210;5.160;2023-05-29T08:58:52;102725.16;;;16.17;50.27
66524;BME280;53350;52.210;5.160;2023-05-29T09:01:20;102718.09;;;16.38;49.53
66524;BME280;53350;52.210;5.160;2023-05-29T09:03:47;102713.75;;;16.43;49.14
66524;BME280;53350;52.210;5.160;2023-05-29T09:06:14;102719.75;;;16.48;49.01
66524;BME280;53350;52.210;5.160;2023-05-29T09:08:43;102707.72;;;16.33;48.69
66524;BME280;53350;52.210;5.160;2023-05-29T09:11:11;102724.13;;;16.44;48.57
66524;BME280;53350;52.210;5.160;2023-05-29T09:13:37;102723.22;;;16.50;48.07
66524;BME280;53350;52.210;5.160;2023-05-29T09:16:04;102728.41;;;16.55;48.24
66524;BME280;53350;52.210;5.160;2023-05-29T09:18:31;102722.31;;;16.56;48.09
66524;BME280;53350;52.210;5.160;2023-05-29T09:20:58;102727.44;;;16.65;47.89
66524;BME280;53350;52.210;5.160;2023-05-29T09:23:26;102717.03;;;16.66;48.28
66524;BME280;53350;52.210;5.160;2023-05-29T09:25:53;102722.13;;;16.82;48.02
66524;BME280;53350;52.210;5.160;2023-05-29T09:28:22;102709.94;;;16.92;48.35
66524;BME280;53350;52.210;5.160;2023-05-29T09:30:51;102715.91;;;17.00;47.66
66524;BME280;53350;52.210;5.160;2023-05-29T09:33:17;102715.13;;;16.92;47.57
66524;BME280;53350;52.210;5.160;2023-05-29T09:35:45;102708.97;;;16.97;47.84
66524;BME280;53350;52.210;5.160;2023-05-29T09:38:13;102712.41;;;17.02;48.71
66524;BME280;53350;52.210;5.160;2023-05-29T09:40:40;102720.94;;;17.20;47.33
66524;BME280;53350;52.210;5.160;2023-05-29T09:43:10;102718.19;;;17.34;46.47
66524;BME280;53350;52.210;5.160;2023-05-29T09:45:39;102716.34;;;17.45;45.94
66524;BME280;53350;52.210;5.160;2023-05-29T09:48:06;102715.47;;;17.45;46.10
66524;BME280;53350;52.210;5.160;2023-05-29T09:50:33;102725.00;;;17.47;45.57
66524;BME280;53350;52.210;5.160;2023-05-29T09:53:00;102723.31;;;17.43;45.77
66524;BME280;53350;52.210;5.160;2023-05-29T09:55:27;102719.06;;;17.33;46.12
66524;BME280;53350;52.210;5.160;2023-05-29T09:57:57;102719.09;;;17.31;45.18
66524;BME280;53350;52.210;5.160;2023-05-29T10:00:25;102713.03;;;17.28;44.68
66524;BME280;53350;52.210;5.160;2023-05-29T10:02:53;102712.28;;;17.19;45.49
66524;BME280;53350;52.210;5.160;2023-05-29T10:05:21;102713.03;;;17.28;46.13
66524;BME280;53350;52.210;5.160;2023-05-29T10:07:49;102712.94;;;17.38;45.66
66524;BME280;53350;52.210;5.160;2023-05-29T10:10:18;102710.28;;;17.42;45.70
66524;BME280;53350;52.210;5.160;2023-05-29T10:12:48;102704.22;;;17.41;45.63
66524;BME280;53350;52.210;5.160;2023-05-29T10:15:16;102707.84;;;17.26;45.50
66524;BME280;53350;52.210;5.160;2023-05-29T10:17:49;102702.56;;;17.35;45.42
66524;BME280;53350;52.210;5.160;2023-05-29T10:20:19;102696.66;;;17.19;45.56
66524;BME280;53350;52.210;5.160;2023-05-29T10:22:49;102697.50;;;17.20;46.59
66524;BME280;53350;52.210;5.160;2023-05-29T10:25:18;102699.19;;;17.24;47.35
66524;BME280;53350;52.210;5.160;2023-05-29T10:27:45;102704.34;;;17.29;46.70
66524;BME280;53350;52.210;5.160;2023-05-29T10:30:19;102700.78;;;17.37;46.58
66524;BME280;53350;52.210;5.160;2023-05-29T10:33:00;102694.47;;;17.59;46.48
66524;BME280;53350;52.210;5.160;2023-05-29T10:35:40;102703.88;;;17.72;46.32
66524;BME280;53350;52.210;5.160;2023-05-29T10:38:10;102694.38;;;17.66;46.22
66524;BME280;53350;52.210;5.160;2023-05-29T10:40:37;102696.09;;;17.69;45.16
66524;BME280;53350;52.210;5.160;2023-05-29T10:43:03;102690.75;;;17.77;44.35
66524;BME280;53350;52.210;5.160;2023-05-29T10:45:50;102681.91;;;17.88;44.65
66524;BME280;53350;52.210;5.160;2023-05-29T10:48:36;102684.38;;;18.02;45.96
66524;BME280;53350;52.210;5.160;2023-05-29T10:51:06;102688.56;;;18.14;45.88
66524;BME280;53350;52.210;5.160;2023-05-29T10:53:34;102697.31;;;18.10;46.07
66524;BME280;53350;52.210;5.160;2023-05-29T10:56:10;102686.81;;;18.15;46.08
66524;BME280;53350;52.210;5.160;2023-05-29T10:58:40;102685.06;;;18.15;46.10
66524;BME280;53350;52.210;5.160;2023-05-29T11:01:08;102679.03;;;18.10;45.96
66524;BME280;53350;52.210;5.160;2023-05-29T11:03:34;102689.38;;;18.18;46.31
66524;BME280;53350;52.210;5.160;2023-05-29T11:06:03;102692.03;;;18.16;46.40
66524;BME280;53350;52.210;5.160;2023-05-29T11:08:35;102695.38;;;18.23;45.19
66524;BME280;53350;52.210;5.160;2023-05-29T11:11:02;102704.13;;;18.22;45.62
66524;BME280;53350;52.210;5.160;2023-05-29T11:13:32;102699.25;;;17.94;45.78
66524;BME280;53350;52.210;5.160;2023-05-29T11:16:11;102698.34;;;17.98;46.42
66524;BME280;53350;52.210;5.160;2023-05-29T11:18:40;102696.53;;;18.05;46.68
66524;BME280;53350;52.210;5.160;2023-05-29T11:21:07;102699.94;;;18.08;46.90
66524;BME280;53350;52.210;5.160;2023-05-29T11:23:41;102692.16;;;18.05;47.08
66524;BME280;53350;52.210;5.160;2023-05-29T11:26:08;102690.50;;;17.98;47.59
66524;BME280;53350;52.210;5.160;2023-05-29T11:28:36;102689.69;;;17.96;47.33
66524;BME280;53350;52.210;5.160;2023-05-29T11:31:08;102682.03;;;17.81;47.43
66524;BME280;53350;52.210;5.160;2023-05-29T11:33:39;102686.25;;;17.91;47.08
66524;BME280;53350;52.210;5.160;2023-05-29T11:36:06;102685.22;;;18.03;46.60
66524;BME280;53350;52.210;5.160;2023-05-29T11:38:36;102697.25;;;18.15;46.29
66524;BME280;53350;52.210;5.160;2023-05-29T11:41:03;102699.66;;;18.29;45.99
66524;BME280;53350;52.210;5.160;2023-05-29T11:43:31;102696.16;;;18.30;46.00
66524;BME280;53350;52.210;5.160;2023-05-29T11:45:57;102685.69;;;18.33;46.15
66524;BME280;53350;52.210;5.160;2023-05-29T11:48:24;102713.41;;;18.40;45.05
66524;BME280;53350;52.210;5.160;2023-05-29T11:50:50;102696.09;;;18.34;45.15
66524;BME280;53350;52.210;5.160;2023-05-29T11:53:17;102695.25;;;18.34;45.67
66524;BME280;53350;52.210;5.160;2023-05-29T11:55:43;102705.63;;;18.37;45.57
66524;BME280;53350;52.210;5.160;2023-05-29T11:58:11;102698.78;;;18.28;46.02
66524;BME280;53350;52.210;5.160;2023-05-29T12:00:38;102704.19;;;18.16;46.94
66524;BME280;53350;52.210;5.160;2023-05-29T12:03:06;102702.41;;;18.19;46.31
66524;BME280;53350;52.210;5.160;2023-05-29T12:05:43;102710.09;;;18.29;46.38
66524;BME280;53350;52.210;5.160;2023-05-29T12:08:10;102703.06;;;18.34;46.68
66524;BME280;53350;52.210;5.160;2023-05-29T12:10:36;102703.13;;;18.31;47.03
66524;BME280;53350;52.210;5.160;2023-05-29T12:13:03;102689.91;;;18.40;46.45
66524;BME280;53350;52.210;5.160;2023-05-29T12:15:31;102696.94;;;18.35;46.77
66524;BME280;53350;52.210;5.160;2023-05-29T12:17:57;102690.97;;;18.28;46.80
66524;BME280;53350;52.210;5.160;2023-05-29T12:20:26;102691.09;;;18.19;46.35
66524;BME280;53350;52.210;5.160;2023-05-29T12:22:52;102686.78;;;18.18;46.24
66524;BME280;53350;52.210;5.160;2023-05-29T12:25:20;102688.50;;;18.17;46.57
66524;BME280;53350;52.210;5.160;2023-05-29T12:27:47;102689.28;;;18.24;46.48
66524;BME280;53350;52.210;5.160;2023-05-29T12:30:19;102693.72;;;18.17;46.39
66524;BME280;53350;52.210;5.160;2023-05-29T12:32:48;102685.84;;;18.22;46.09
66524;BME280;53350;52.210;5.160;2023-05-29T12:35:18;102694.59;;;18.19;46.15
66524;BME280;53350;52.210;5.160;2023-05-29T12:37:46;102675.59;;;18.10;46.21
66524;BME280;53350;52.210;5.160;2023-05-29T12:40:17;102681.03;;;17.93;46.62
66524;BME280;53350;52.210;5.160;2023-05-29T12:42:45;102685.31;;;17.97;46.77
66524;BME280;53350;52.210;5.160;2023-05-29T12:45:12;102693.13;;;17.98;46.89
66524;BME280;53350;52.210;5.160;2023-05-29T12:47:44;102680.16;;;17.94;46.66
66524;BME280;53350;52.210;5.160;2023-05-29T12:50:26;102665.41;;;17.91;46.86
66524;BME280;53350;52.210;5.160;2023-05-29T12:52:53;102670.59;;;17.93;47.16